Mount Shasta, California
Current Conditions -  °F | °C
As of 3:56 AM on Saturday 20 Dec 2014 (Local Time) from KMHS Reporting Station
Overcast Overcast  
Wind Chill: 38°   Ceiling: 6500
Heat Index: 42°   Visibility: 10mi
Dew Point: 38°   Wind: 7mph
Humidity: 85%   Direction: 100°E
Pressure: 30.05"   Gusts: NA
Location:  41.31°N, 122.31°W
Report Text: KMHS 201156Z AUTO 10006KT 10SM FEW036 OVC065 06/03 A3005 RMK AO2 RAB01E24 SLP195 P0000 60005 70021 T00560033 10056 20056 52005
Loading
Personal Weather Stations






























Interactive Weather Map New forecast layout! Learn more

10-Day Weather Forecast

Advertisements
Track Severe Weather on mobile